Etusivu
METAR-TAF:

METAR-TAF

Lentoasemat :

Esbjerg, Tanska

Leveyspiiri: 55-32N, Pituuspiiri: 008-34E, korkeus merenpinnasta: 30 m

Tämänhetkinen sää

Tämä raportti tehtiin 10 minuuttia sitten, kello 03.20 UTC
Tuuli 3 kn lounaasta
Lämpötila 9°C
Kosteus 100%
Ilmanpaine 1022 hPa
Näkyvyys 10 km tai enemmän

METAR: EKEB 280320Z AUTO 22003KT 9999 BKN060/// 09/09 Q1022

Aika: 05:30 (03:30 UTC)

Sääennuste

Tämä raportti tehtiin 1 tunti ja 30 minuuttia sitten, kello 02.00 UTC
Ennuste voimassa 28. päivästä klo 03 UTC - 28. päivään klo 12 UTC
Tuuli 6 kn lännestä
Näkyvyys 10 km tai enemmän
Hajonneita pilviä 3000 ft:n korkeudessa
Ajoittain
28. päivästä klo 04 UTC - 28. päivään klo 10 UTC
Hajonneita pilviä 800 ft:n korkeudessa

TAF: EKEB 280200Z 2803/2812 26006KT 9999 BKN030 TEMPO 2804/2810 BKN008

Säähavainnot ja -ennusteet yli 4000 lentoasemalta (METAR- ja TAF-raportit).

Käytössä olevat sääasemat on merkitty karttaan keltaisilla ja punaisilla pisteillä.

Aseta hiiri pisteen päälle nähdäksesi sääaseman nimen.

Klikkaa sitten nähdäksesi säähavainnot ja -ennusteet.

Kartan vaihtaminen: klikkaa mustalla rastilla varustettuja vihreitä pisteitä, niin voit zoomata sisään; viivalla varustettua vihreää pistettä, niin voit zoomata ulos tai vihreitä nuolia, niin pääset viereisille kartoille.


METAR-TAF: